Taylor Mines, Kentucky
Current Conditions -  °F | °C
As of 8:35 AM on Tuesday 21 Oct 2014 (Local Time) from K2I0 Reporting Station
Clear Clear  
Wind Chill: 54°   Ceiling: Unl
Heat Index: 54°   Visibility: 10mi
Dew Point: 51°   Wind: 0mph
Humidity: 90%   Direction: NA
Pressure: 30.07"   Gusts: NA
Location:  37.3559°N, 86.8747°W
Report Text: K2I0 211335Z AUTO 00000KT 10SM CLR 12/11 A3007 RMK AO2 T01210105
Loading
Personal Weather Stations






























Interactive Weather Map
Tropical Storm Tracking
New forecast layout! Learn more

10-Day Weather Forecast

Advertisements
Track Severe Weather on mobile